sensor_id;sensor_type;location;lat;lon;timestamp;pressure;altitude;pressure_sealevel;temperature;humidity
12897;BME280;6516;35.028;32.372;2022-10-16T00:02:02;99670.63;;;21.37;53.27
12897;BME280;6516;35.028;32.372;2022-10-16T00:04:29;99676.22;;;21.34;53.26
12897;BME280;6516;35.028;32.372;2022-10-16T00:06:57;99673.84;;;21.29;53.38
12897;BME280;6516;35.028;32.372;2022-10-16T00:09:25;99675.78;;;21.27;53.37
12897;BME280;6516;35.028;32.372;2022-10-16T00:11:54;99672.13;;;21.28;53.13
12897;BME280;6516;35.028;32.372;2022-10-16T00:14:22;99675.53;;;21.30;53.22
12897;BME280;6516;35.028;32.372;2022-10-16T00:16:49;99668.38;;;21.31;53.79
12897;BME280;6516;35.028;32.372;2022-10-16T00:19:17;99661.22;;;21.31;53.22
12897;BME280;6516;35.028;32.372;2022-10-16T00:21:45;99655.00;;;21.31;53.68
12897;BME280;6516;35.028;32.372;2022-10-16T00:24:12;99660.56;;;21.28;53.62
12897;BME280;6516;35.028;32.372;2022-10-16T00:26:40;99668.38;;;21.31;52.91
12897;BME280;6516;35.028;32.372;2022-10-16T00:29:10;99664.63;;;21.33;53.28
12897;BME280;6516;35.028;32.372;2022-10-16T00:31:37;99655.63;;;21.34;53.34
12897;BME280;6516;35.028;32.372;2022-10-16T00:34:05;99662.94;;;21.32;53.67
12897;BME280;6516;35.028;32.372;2022-10-16T00:36:33;99656.50;;;21.35;53.91
12897;BME280;6516;35.028;32.372;2022-10-16T00:39:02;99657.22;;;21.37;53.08
12897;BME280;6516;35.028;32.372;2022-10-16T00:41:32;99655.31;;;21.39;53.17
12897;BME280;6516;35.028;32.372;2022-10-16T00:44:01;99647.91;;;21.42;52.76
12897;BME280;6516;35.028;32.372;2022-10-16T00:46:35;99648.34;;;21.49;52.24
12897;BME280;6516;35.028;32.372;2022-10-16T00:49:07;99643.63;;;21.52;52.21
12897;BME280;6516;35.028;32.372;2022-10-16T00:51:39;99625.41;;;21.57;51.85
12897;BME280;6516;35.028;32.372;2022-10-16T00:54:10;99627.53;;;21.65;51.66
12897;BME280;6516;35.028;32.372;2022-10-16T00:56:41;99623.16;;;21.64;52.10
12897;BME280;6516;35.028;32.372;2022-10-16T00:59:14;99617.69;;;21.65;52.09
12897;BME280;6516;35.028;32.372;2022-10-16T01:01:45;99619.00;;;21.72;51.77
12897;BME280;6516;35.028;32.372;2022-10-16T01:04:12;99619.00;;;21.72;51.85
12897;BME280;6516;35.028;32.372;2022-10-16T01:06:45;99614.19;;;21.77;51.93
12897;BME280;6516;35.028;32.372;2022-10-16T01:09:19;99611.38;;;21.79;52.57
12897;BME280;6516;35.028;32.372;2022-10-16T01:11:57;99607.50;;;21.83;52.05
12897;BME280;6516;35.028;32.372;2022-10-16T01:14:37;99618.09;;;21.84;51.69
12897;BME280;6516;35.028;32.372;2022-10-16T01:17:12;99613.41;;;21.88;51.42
12897;BME280;6516;35.028;32.372;2022-10-16T01:19:59;99612.19;;;21.92;51.46
12897;BME280;6516;35.028;32.372;2022-10-16T01:22:39;99612.94;;;21.94;51.40
12897;BME280;6516;35.028;32.372;2022-10-16T01:25:20;99601.25;;;21.95;50.99
12897;BME280;6516;35.028;32.372;2022-10-16T01:27:55;99599.84;;;22.02;55.49
12897;BME280;6516;35.028;32.372;2022-10-16T01:30:26;99599.53;;;21.94;57.82
12897;BME280;6516;35.028;32.372;2022-10-16T01:33:00;99596.44;;;21.87;59.51
12897;BME280;6516;35.028;32.372;2022-10-16T01:35:32;99595.97;;;21.70;61.45
12897;BME280;6516;35.028;32.372;2022-10-16T01:38:06;99605.50;;;21.49;60.72
12897;BME280;6516;35.028;32.372;2022-10-16T01:40:39;99600.69;;;21.29;62.65
12897;BME280;6516;35.028;32.372;2022-10-16T01:43:13;99605.91;;;21.05;65.57
12897;BME280;6516;35.028;32.372;2022-10-16T01:45:42;99612.88;;;20.69;69.72
12897;BME280;6516;35.028;32.372;2022-10-16T01:48:14;99617.34;;;20.29;70.47
12897;BME280;6516;35.028;32.372;2022-10-16T01:50:52;99608.22;;;20.05;70.04
12897;BME280;6516;35.028;32.372;2022-10-16T01:53:23;99607.59;;;19.88;71.51
12897;BME280;6516;35.028;32.372;2022-10-16T01:55:52;99609.03;;;19.79;72.36
12897;BME280;6516;35.028;32.372;2022-10-16T01:58:23;99599.50;;;19.75;72.41
12897;BME280;6516;35.028;32.372;2022-10-16T02:00:54;99600.00;;;19.67;72.88
12897;BME280;6516;35.028;32.372;2022-10-16T02:03:23;99608.66;;;19.71;73.03
12897;BME280;6516;35.028;32.372;2022-10-16T02:05:52;99604.84;;;19.75;73.74
12897;BME280;6516;35.028;32.372;2022-10-16T02:08:22;99597.31;;;19.82;72.19
12897;BME280;6516;35.028;32.372;2022-10-16T02:10:52;99605.59;;;19.91;72.19
12897;BME280;6516;35.028;32.372;2022-10-16T02:13:23;99601.28;;;20.03;71.56
12897;BME280;6516;35.028;32.372;2022-10-16T02:15:55;99603.06;;;20.16;71.71
12897;BME280;6516;35.028;32.372;2022-10-16T02:18:22;99604.75;;;20.31;72.14
12897;BME280;6516;35.028;32.372;2022-10-16T02:20:58;99611.50;;;20.37;72.34
12897;BME280;6516;35.028;32.372;2022-10-16T02:23:32;99617.53;;;20.40;72.68
12897;BME280;6516;35.028;32.372;2022-10-16T02:26:05;99640.53;;;20.43;71.73
12897;BME280;6516;35.028;32.372;2022-10-16T02:28:40;99629.69;;;20.97;68.42
12897;BME280;6516;35.028;32.372;2022-10-16T02:31:13;99632.19;;;21.50;66.21
12897;BME280;6516;35.028;32.372;2022-10-16T02:33:46;99629.66;;;21.97;64.27
12897;BME280;6516;35.028;32.372;2022-10-16T02:36:13;99640.09;;;22.25;62.06
12897;BME280;6516;35.028;32.372;2022-10-16T02:38:41;99631.38;;;22.47;60.61
12897;BME280;6516;35.028;32.372;2022-10-16T02:41:09;99634.09;;;22.58;60.19
12897;BME280;6516;35.028;32.372;2022-10-16T02:43:39;99643.06;;;22.69;60.44
12897;BME280;6516;35.028;32.372;2022-10-16T02:46:06;99639.63;;;22.67;61.37
12897;BME280;6516;35.028;32.372;2022-10-16T02:48:34;99658.97;;;22.60;61.75
12897;BME280;6516;35.028;32.372;2022-10-16T02:51:02;99671.25;;;22.51;63.06
12897;BME280;6516;35.028;32.372;2022-10-16T02:53:30;99682.00;;;22.51;63.13
12897;BME280;6516;35.028;32.372;2022-10-16T02:55:58;99690.50;;;22.45;63.21
12897;BME280;6516;35.028;32.372;2022-10-16T02:58:25;99717.56;;;22.30;64.29
12897;BME280;6516;35.028;32.372;2022-10-16T03:00:55;99712.97;;;22.19;65.45
12897;BME280;6516;35.028;32.372;2022-10-16T03:03:23;99719.44;;;22.04;67.96
12897;BME280;6516;35.028;32.372;2022-10-16T03:05:50;99724.06;;;21.77;71.32
12897;BME280;6516;35.028;32.372;2022-10-16T03:08:18;99724.66;;;21.56;72.53
12897;BME280;6516;35.028;32.372;2022-10-16T03:10:49;99767.06;;;20.98;75.82
12897;BME280;6516;35.028;32.372;2022-10-16T03:13:19;99760.41;;;20.36;82.62
12897;BME280;6516;35.028;32.372;2022-10-16T03:15:47;99764.97;;;19.92;86.53
12897;BME280;6516;35.028;32.372;2022-10-16T03:18:17;99769.69;;;19.59;89.35
12897;BME280;6516;35.028;32.372;2022-10-16T03:20:44;99792.25;;;19.39;91.45
12897;BME280;6516;35.028;32.372;2022-10-16T03:23:12;99778.88;;;19.10;94.33
12897;BME280;6516;35.028;32.372;2022-10-16T03:25:40;99772.50;;;18.97;95.62
12897;BME280;6516;35.028;32.372;2022-10-16T03:28:07;99778.53;;;18.85;97.63
12897;BME280;6516;35.028;32.372;2022-10-16T03:30:35;99774.69;;;18.75;98.25
12897;BME280;6516;35.028;32.372;2022-10-16T03:33:05;99771.59;;;18.67;99.68
12897;BME280;6516;35.028;32.372;2022-10-16T03:35:34;99762.31;;;18.58;100.00
12897;BME280;6516;35.028;32.372;2022-10-16T03:38:02;99754.16;;;18.46;100.00
12897;BME280;6516;35.028;32.372;2022-10-16T03:40:30;99752.06;;;18.35;100.00
12897;BME280;6516;35.028;32.372;2022-10-16T03:42:58;99745.31;;;18.28;100.00
12897;BME280;6516;35.028;32.372;2022-10-16T03:45:25;99748.94;;;18.27;100.00
12897;BME280;6516;35.028;32.372;2022-10-16T03:47:55;99742.91;;;18.24;100.00
12897;BME280;6516;35.028;32.372;2022-10-16T03:50:23;99749.53;;;18.17;100.00
12897;BME280;6516;35.028;32.372;2022-10-16T03:52:52;99753.22;;;18.14;100.00
12897;BME280;6516;35.028;32.372;2022-10-16T03:55:20;99751.44;;;18.15;100.00
12897;BME280;6516;35.028;32.372;2022-10-16T03:57:48;99765.78;;;18.12;100.00
12897;BME280;6516;35.028;32.372;2022-10-16T04:00:16;99763.19;;;18.11;100.00
12897;BME280;6516;35.028;32.372;2022-10-16T04:02:43;99731.72;;;18.02;100.00
12897;BME280;6516;35.028;32.372;2022-10-16T04:05:11;99746.00;;;18.01;100.00
12897;BME280;6516;35.028;32.372;2022-10-16T04:07:39;99716.69;;;18.01;100.00
12897;BME280;6516;35.028;32.372;2022-10-16T04:10:09;99682.91;;;18.01;100.00
12897;BME280;6516;35.028;32.372;2022-10-16T04:12:36;99664.16;;;18.03;100.00
12897;BME280;6516;35.028;32.372;2022-10-16T04:15:05;99671.41;;;18.01;100.00
12897;BME280;6516;35.028;32.372;2022-10-16T04:17:33;99688.56;;;17.95;100.00
12897;BME280;6516;35.028;32.372;2022-10-16T04:20:01;99732.22;;;17.93;100.00
12897;BME280;6516;35.028;32.372;2022-10-16T04:22:29;99773.03;;;17.93;100.00
12897;BME280;6516;35.028;32.372;2022-10-16T04:24:56;99768.75;;;17.91;100.00
12897;BME280;6516;35.028;32.372;2022-10-16T04:27:25;99764.44;;;17.88;100.00
12897;BME280;6516;35.028;32.372;2022-10-16T04:29:54;99785.50;;;17.93;100.00
12897;BME280;6516;35.028;32.372;2022-10-16T04:32:21;99824.34;;;17.97;100.00
12897;BME280;6516;35.028;32.372;2022-10-16T04:34:49;99861.16;;;18.06;100.00
12897;BME280;6516;35.028;32.372;2022-10-16T04:37:17;99861.69;;;18.12;100.00
12897;BME280;6516;35.028;32.372;2022-10-16T04:39:44;99826.97;;;18.14;100.00
12897;BME280;6516;35.028;32.372;2022-10-16T04:42:12;99790.38;;;18.17;100.00
12897;BME280;6516;35.028;32.372;2022-10-16T04:44:41;99791.03;;;18.21;100.00
12897;BME280;6516;35.028;32.372;2022-10-16T04:47:09;99791.25;;;18.18;100.00
12897;BME280;6516;35.028;32.372;2022-10-16T04:49:37;99793.91;;;18.18;100.00
12897;BME280;6516;35.028;32.372;2022-10-16T04:52:05;99817.00;;;18.17;100.00
12897;BME280;6516;35.028;32.372;2022-10-16T04:54:34;99855.19;;;18.18;100.00
12897;BME280;6516;35.028;32.372;2022-10-16T04:57:02;99848.91;;;18.19;100.00
12897;BME280;6516;35.028;32.372;2022-10-16T04:59:30;99836.44;;;18.19;100.00
12897;BME280;6516;35.028;32.372;2022-10-16T05:01:59;99843.50;;;18.20;100.00
12897;BME280;6516;35.028;32.372;2022-10-16T05:04:27;99848.66;;;18.23;100.00
12897;BME280;6516;35.028;32.372;2022-10-16T05:06:55;99873.09;;;18.31;100.00
12897;BME280;6516;35.028;32.372;2022-10-16T05:09:22;99889.03;;;18.33;100.00
12897;BME280;6516;35.028;32.372;2022-10-16T05:11:50;99908.53;;;18.33;100.00
12897;BME280;6516;35.028;32.372;2022-10-16T05:14:18;99949.41;;;18.34;100.00
12897;BME280;6516;35.028;32.372;2022-10-16T05:16:46;100007.91;;;18.37;100.00
12897;BME280;6516;35.028;32.372;2022-10-16T05:19:16;100037.84;;;18.42;100.00
12897;BME280;6516;35.028;32.372;2022-10-16T05:21:43;100068.00;;;18.42;100.00
12897;BME280;6516;35.028;32.372;2022-10-16T05:24:11;100065.00;;;17.60;100.00
12897;BME280;6516;35.028;32.372;2022-10-16T05:26:39;100069.94;;;16.92;100.00
12897;BME280;6516;35.028;32.372;2022-10-16T05:29:07;100059.75;;;16.22;100.00
12897;BME280;6516;35.028;32.372;2022-10-16T05:31:35;100050.41;;;15.70;100.00
12897;BME280;6516;35.028;32.372;2022-10-16T05:34:03;100038.63;;;15.33;100.00
12897;BME280;6516;35.028;32.372;2022-10-16T05:36:32;100008.59;;;15.09;100.00
12897;BME280;6516;35.028;32.372;2022-10-16T05:39:00;99984.41;;;14.95;100.00
12897;BME280;6516;35.028;32.372;2022-10-16T05:41:27;99964.22;;;14.91;100.00
12897;BME280;6516;35.028;32.372;2022-10-16T05:43:55;99978.41;;;14.90;100.00
12897;BME280;6516;35.028;32.372;2022-10-16T05:46:23;100011.94;;;14.91;100.00
12897;BME280;6516;35.028;32.372;2022-10-16T05:48:51;100024.31;;;14.91;100.00
12897;BME280;6516;35.028;32.372;2022-10-16T05:51:20;100031.47;;;14.89;100.00
12897;BME280;6516;35.028;32.372;2022-10-16T05:53:49;100025.09;;;14.94;100.00
12897;BME280;6516;35.028;32.372;2022-10-16T05:56:16;100006.47;;;14.96;100.00
12897;BME280;6516;35.028;32.372;2022-10-16T05:58:45;100008.03;;;15.01;100.00
12897;BME280;6516;35.028;32.372;2022-10-16T06:01:15;100014.16;;;15.03;100.00
12897;BME280;6516;35.028;32.372;2022-10-16T06:03:44;100028.09;;;15.08;100.00
12897;BME280;6516;35.028;32.372;2022-10-16T06:06:13;100051.78;;;15.13;100.00
12897;BME280;6516;35.028;32.372;2022-10-16T06:08:43;100072.44;;;15.28;100.00
12897;BME280;6516;35.028;32.372;2022-10-16T06:11:15;100088.13;;;15.34;100.00
12897;BME280;6516;35.028;32.372;2022-10-16T06:13:44;100109.56;;;15.28;100.00
12897;BME280;6516;35.028;32.372;2022-10-16T06:16:13;100092.03;;;15.24;100.00
12897;BME280;6516;35.028;32.372;2022-10-16T06:18:40;100079.66;;;15.23;100.00
12897;BME280;6516;35.028;32.372;2022-10-16T06:21:09;100075.19;;;15.25;100.00
12897;BME280;6516;35.028;32.372;2022-10-16T06:23:38;100081.06;;;15.33;100.00
12897;BME280;6516;35.028;32.372;2022-10-16T06:26:06;100085.19;;;15.41;100.00
12897;BME280;6516;35.028;32.372;2022-10-16T06:28:37;100086.59;;;15.50;100.00
12897;BME280;6516;35.028;32.372;2022-10-16T06:31:06;100083.75;;;15.56;100.00
12897;BME280;6516;35.028;32.372;2022-10-16T06:33:35;100095.09;;;15.59;100.00
12897;BME280;6516;35.028;32.372;2022-10-16T06:36:05;100103.78;;;15.63;100.00
12897;BME280;6516;35.028;32.372;2022-10-16T06:38:34;100088.06;;;15.58;100.00
12897;BME280;6516;35.028;32.372;2022-10-16T06:41:03;100066.88;;;15.57;100.00
12897;BME280;6516;35.028;32.372;2022-10-16T06:43:32;100060.59;;;15.59;100.00
12897;BME280;6516;35.028;32.372;2022-10-16T06:46:03;100052.56;;;15.61;100.00
12897;BME280;6516;35.028;32.372;2022-10-16T06:48:33;100052.25;;;15.68;100.00
12897;BME280;6516;35.028;32.372;2022-10-16T06:51:03;100055.44;;;15.78;100.00
12897;BME280;6516;35.028;32.372;2022-10-16T06:53:33;100050.91;;;15.80;100.00
12897;BME280;6516;35.028;32.372;2022-10-16T06:56:07;100064.84;;;15.85;100.00
12897;BME280;6516;35.028;32.372;2022-10-16T06:58:35;100069.72;;;15.95;100.00
12897;BME280;6516;35.028;32.372;2022-10-16T07:01:05;100087.75;;;16.09;100.00
12897;BME280;6516;35.028;32.372;2022-10-16T07:03:36;100092.78;;;16.16;100.00
12897;BME280;6516;35.028;32.372;2022-10-16T07:06:05;100107.19;;;16.31;100.00
12897;BME280;6516;35.028;32.372;2022-10-16T07:08:35;100110.03;;;16.48;100.00
12897;BME280;6516;35.028;32.372;2022-10-16T07:11:05;100122.59;;;16.64;100.00
12897;BME280;6516;35.028;32.372;2022-10-16T07:13:34;100129.72;;;16.84;100.00
12897;BME280;6516;35.028;32.372;2022-10-16T07:16:06;100130.28;;;16.92;100.00
12897;BME280;6516;35.028;32.372;2022-10-16T07:18:35;100130.53;;;16.86;100.00
12897;BME280;6516;35.028;32.372;2022-10-16T07:21:05;100120.03;;;16.83;100.00
12897;BME280;6516;35.028;32.372;2022-10-16T07:23:33;100127.47;;;16.75;100.00
12897;BME280;6516;35.028;32.372;2022-10-16T07:26:02;100138.16;;;16.73;100.00
12897;BME280;6516;35.028;32.372;2022-10-16T07:28:30;100142.22;;;16.62;100.00
12897;BME280;6516;35.028;32.372;2022-10-16T07:31:00;100145.75;;;16.62;100.00
12897;BME280;6516;35.028;32.372;2022-10-16T07:33:30;100156.16;;;16.67;100.00
12897;BME280;6516;35.028;32.372;2022-10-16T07:35:58;100151.69;;;16.69;100.00
12897;BME280;6516;35.028;32.372;2022-10-16T07:38:26;100156.16;;;16.67;100.00
12897;BME280;6516;35.028;32.372;2022-10-16T07:40:57;100151.78;;;16.66;100.00
12897;BME280;6516;35.028;32.372;2022-10-16T07:43:25;100156.16;;;16.67;100.00
12897;BME280;6516;35.028;32.372;2022-10-16T07:45:54;100146.34;;;16.69;100.00
12897;BME280;6516;35.028;32.372;2022-10-16T07:48:23;100145.41;;;16.70;100.00
12897;BME280;6516;35.028;32.372;2022-10-16T07:50:57;100151.47;;;16.73;100.00
12897;BME280;6516;35.028;32.372;2022-10-16T07:53:25;100141.56;;;16.77;100.00
12897;BME280;6516;35.028;32.372;2022-10-16T07:55:57;100169.63;;;16.84;100.00
12897;BME280;6516;35.028;32.372;2022-10-16T07:58:25;100188.50;;;16.78;100.00
12897;BME280;6516;35.028;32.372;2022-10-16T08:00:53;100185.19;;;16.73;100.00
12897;BME280;6516;35.028;32.372;2022-10-16T08:03:21;100185.69;;;16.61;100.00
12897;BME280;6516;35.028;32.372;2022-10-16T08:05:50;100175.84;;;16.63;100.00
12897;BME280;6516;35.028;32.372;2022-10-16T08:08:19;100177.03;;;16.56;100.00
12897;BME280;6516;35.028;32.372;2022-10-16T08:10:47;100173.19;;;16.63;100.00
12897;BME280;6516;35.028;32.372;2022-10-16T08:13:15;100162.44;;;16.66;100.00
12897;BME280;6516;35.028;32.372;2022-10-16T08:15:43;100154.19;;;16.72;100.00
12897;BME280;6516;35.028;32.372;2022-10-16T08:18:12;100152.13;;;16.78;100.00
12897;BME280;6516;35.028;32.372;2022-10-16T08:20:41;100128.69;;;16.88;100.00
12897;BME280;6516;35.028;32.372;2022-10-16T08:23:11;100121.34;;;16.93;100.00
12897;BME280;6516;35.028;32.372;2022-10-16T08:25:41;100141.25;;;16.84;100.00
12897;BME280;6516;35.028;32.372;2022-10-16T08:28:10;100150.56;;;16.53;100.00
12897;BME280;6516;35.028;32.372;2022-10-16T08:30:38;100156.00;;;16.50;100.00
12897;BME280;6516;35.028;32.372;2022-10-16T08:33:06;100155.84;;;16.33;100.00
12897;BME280;6516;35.028;32.372;2022-10-16T08:35:34;100150.69;;;16.28;100.00
12897;BME280;6516;35.028;32.372;2022-10-16T08:38:03;100142.91;;;16.24;100.00
12897;BME280;6516;35.028;32.372;2022-10-16T08:40:32;100134.06;;;16.23;100.00
12897;BME280;6516;35.028;32.372;2022-10-16T08:43:28;100126.69;;;16.10;100.00
12897;BME280;6516;35.028;32.372;2022-10-16T08:46:15;100125.59;;;16.14;100.00
12897;BME280;6516;35.028;32.372;2022-10-16T08:48:53;100110.38;;;16.19;100.00
12897;BME280;6516;35.028;32.372;2022-10-16T08:51:24;100105.78;;;16.22;100.00
12897;BME280;6516;35.028;32.372;2022-10-16T08:53:56;100089.53;;;16.30;100.00
12897;BME280;6516;35.028;32.372;2022-10-16T08:56:25;100088.75;;;16.28;100.00
12897;BME280;6516;35.028;32.372;2022-10-16T08:58:58;100072.69;;;16.29;100.00
12897;BME280;6516;35.028;32.372;2022-10-16T09:01:37;100055.66;;;16.35;100.00
12897;BME280;6516;35.028;32.372;2022-10-16T09:04:43;100038.88;;;16.54;100.00
12897;BME280;6516;35.028;32.372;2022-10-16T09:07:25;100027.50;;;16.71;100.00
12897;BME280;6516;35.028;32.372;2022-10-16T09:10:09;100016.53;;;16.78;100.00
12897;BME280;6516;35.028;32.372;2022-10-16T09:12:50;100021.06;;;16.95;100.00
12897;BME280;6516;35.028;32.372;2022-10-16T09:15:30;100020.38;;;17.10;100.00
12897;BME280;6516;35.028;32.372;2022-10-16T09:18:05;100023.00;;;17.11;100.00
12897;BME280;6516;35.028;32.372;2022-10-16T09:20:44;100017.09;;;17.05;100.00
12897;BME280;6516;35.028;32.372;2022-10-16T09:23:19;100001.13;;;17.05;100.00
12897;BME280;6516;35.028;32.372;2022-10-16T09:25:51;99986.72;;;17.09;100.00
12897;BME280;6516;35.028;32.372;2022-10-16T09:28:20;99991.31;;;17.05;100.00
12897;BME280;6516;35.028;32.372;2022-10-16T09:30:49;99989.59;;;17.04;100.00
12897;BME280;6516;35.028;32.372;2022-10-16T09:33:19;99989.38;;;16.90;100.00
12897;BME280;6516;35.028;32.372;2022-10-16T09:35:50;99982.53;;;16.85;100.00
12897;BME280;6516;35.028;32.372;2022-10-16T09:38:25;99981.81;;;16.81;100.00
12897;BME280;6516;35.028;32.372;2022-10-16T09:40:55;99968.06;;;16.72;100.00
12897;BME280;6516;35.028;32.372;2022-10-16T09:43:25;99960.09;;;16.72;100.00
12897;BME280;6516;35.028;32.372;2022-10-16T09:46:00;99956.00;;;16.65;100.00
12897;BME280;6516;35.028;32.372;2022-10-16T09:48:33;99946.63;;;16.76;100.00
12897;BME280;6516;35.028;32.372;2022-10-16T09:51:05;99956.25;;;16.79;100.00
12897;BME280;6516;35.028;32.372;2022-10-16T09:53:41;99959.13;;;16.93;100.00
12897;BME280;6516;35.028;32.372;2022-10-16T09:56:11;99945.91;;;17.10;100.00
12897;BME280;6516;35.028;32.372;2022-10-16T09:58:49;99958.81;;;17.36;100.00
12897;BME280;6516;35.028;32.372;2022-10-16T10:01:20;99952.34;;;17.60;98.71
12897;BME280;6516;35.028;32.372;2022-10-16T10:03:57;99955.91;;;18.11;96.12
12897;BME280;6516;35.028;32.372;2022-10-16T10:06:30;99950.28;;;18.67;86.64
12897;BME280;6516;35.028;32.372;2022-10-16T10:09:03;99937.47;;;19.37;79.07
12897;BME280;6516;35.028;32.372;2022-10-16T10:11:45;99937.00;;;19.76;75.96
12897;BME280;6516;35.028;32.372;2022-10-16T10:14:24;99919.91;;;20.08;73.41
12897;BME280;6516;35.028;32.372;2022-10-16T10:17:10;99907.97;;;20.43;71.59
12897;BME280;6516;35.028;32.372;2022-10-16T10:19:47;99898.50;;;20.65;72.48
12897;BME280;6516;35.028;32.372;2022-10-16T10:22:22;99893.31;;;20.76;71.19
12897;BME280;6516;35.028;32.372;2022-10-16T10:25:18;99880.72;;;20.78;69.32
12897;BME280;6516;35.028;32.372;2022-10-16T10:28:10;99872.09;;;20.87;69.71
12897;BME280;6516;35.028;32.372;2022-10-16T10:31:01;99866.75;;;20.87;71.64
12897;BME280;6516;35.028;32.372;2022-10-16T10:33:42;99856.63;;;20.92;71.78
12897;BME280;6516;35.028;32.372;2022-10-16T10:36:25;99842.00;;;21.24;72.32
12897;BME280;6516;35.028;32.372;2022-10-16T10:38:59;99835.91;;;21.88;71.14
12897;BME280;6516;35.028;32.372;2022-10-16T10:44:56;99835.09;;;23.45;59.33
12897;BME280;6516;35.028;32.372;2022-10-16T10:47:43;99820.06;;;24.01;55.27
12897;BME280;6516;35.028;32.372;2022-10-16T10:50:25;99818.00;;;24.37;54.33
12897;BME280;6516;35.028;32.372;2022-10-16T10:53:05;99810.53;;;24.52;53.92
12897;BME280;6516;35.028;32.372;2022-10-16T10:55:43;99809.31;;;24.89;53.42
12897;BME280;6516;35.028;32.372;2022-10-16T10:58:35;99810.91;;;24.91;49.09
12897;BME280;6516;35.028;32.372;2022-10-16T11:01:16;99820.47;;;24.73;49.65
12897;BME280;6516;35.028;32.372;2022-10-16T11:04:06;99821.59;;;24.60;50.03
12897;BME280;6516;35.028;32.372;2022-10-16T11:06:55;99808.09;;;24.38;52.34
12897;BME280;6516;35.028;32.372;2022-10-16T11:09:30;99820.06;;;24.23;52.33
12897;BME280;6516;35.028;32.372;2022-10-16T11:12:06;99818.97;;;24.14;52.43
12897;BME280;6516;35.028;32.372;2022-10-16T11:14:41;99824.91;;;23.96;53.29
12897;BME280;6516;35.028;32.372;2022-10-16T11:17:14;99822.34;;;23.94;52.79
12897;BME280;6516;35.028;32.372;2022-10-16T11:19:48;99829.34;;;23.73;54.63
12897;BME280;6516;35.028;32.372;2022-10-16T11:22:24;99830.56;;;23.46;55.70
12897;BME280;6516;35.028;32.372;2022-10-16T11:25:01;99836.94;;;23.21;52.75
12897;BME280;6516;35.028;32.372;2022-10-16T11:27:38;99825.13;;;23.11;51.92
12897;BME280;6516;35.028;32.372;2022-10-16T11:30:14;99830.72;;;23.08;52.86
12897;BME280;6516;35.028;32.372;2022-10-16T11:33:04;99824.50;;;23.08;53.32
12897;BME280;6516;35.028;32.372;2022-10-16T11:35:44;99827.59;;;23.14;54.05
12897;BME280;6516;35.028;32.372;2022-10-16T11:38:23;99830.31;;;23.38;53.29
12897;BME280;6516;35.028;32.372;2022-10-16T11:41:00;99833.66;;;23.52;53.89
12897;BME280;6516;35.028;32.372;2022-10-16T11:43:34;99829.06;;;23.65;52.11
12897;BME280;6516;35.028;32.372;2022-10-16T11:46:11;99826.94;;;23.81;53.03
12897;BME280;6516;35.028;32.372;2022-10-16T11:48:47;99830.28;;;23.96;51.58
12897;BME280;6516;35.028;32.372;2022-10-16T11:51:23;99834.59;;;24.09;53.16
12897;BME280;6516;35.028;32.372;2022-10-16T11:53:57;99826.03;;;24.15;52.77
12897;BME280;6516;35.028;32.372;2022-10-16T11:56:29;99829.00;;;24.12;53.12
12897;BME280;6516;35.028;32.372;2022-10-16T11:59:01;99827.41;;;24.32;51.30
12897;BME280;6516;35.028;32.372;2022-10-16T12:01:36;99826.09;;;24.48;50.60
12897;BME280;6516;35.028;32.372;2022-10-16T12:04:16;99822.16;;;24.41;51.74
12897;BME280;6516;35.028;32.372;2022-10-16T12:06:51;99812.25;;;24.42;49.50
12897;BME280;6516;35.028;32.372;2022-10-16T12:09:26;99819.25;;;24.44;49.19
12897;BME280;6516;35.028;32.372;2022-10-16T12:11:56;99806.63;;;24.34;48.83
12897;BME280;6516;35.028;32.372;2022-10-16T12:14:39;99814.34;;;24.27;50.14
12897;BME280;6516;35.028;32.372;2022-10-16T12:17:27;99813.84;;;24.33;49.32
12897;BME280;6516;35.028;32.372;2022-10-16T12:20:20;99800.00;;;24.16;50.08
12897;BME280;6516;35.028;32.372;2022-10-16T12:22:54;99800.34;;;24.11;50.24
12897;BME280;6516;35.028;32.372;2022-10-16T12:25:27;99802.31;;;24.20;50.54
12897;BME280;6516;35.028;32.372;2022-10-16T12:28:02;99789.34;;;24.25;50.57
12897;BME280;6516;35.028;32.372;2022-10-16T12:30:33;99786.53;;;24.27;50.52
12897;BME280;6516;35.028;32.372;2022-10-16T12:33:03;99778.38;;;24.39;49.77
12897;BME280;6516;35.028;32.372;2022-10-16T12:35:35;99786.44;;;24.39;49.46
12897;BME280;6516;35.028;32.372;2022-10-16T12:38:19;99783.25;;;24.45;50.92
12897;BME280;6516;35.028;32.372;2022-10-16T12:40:58;99788.88;;;24.42;54.60
12897;BME280;6516;35.028;32.372;2022-10-16T12:43:36;99779.56;;;24.46;54.82
12897;BME280;6516;35.028;32.372;2022-10-16T12:46:21;99790.59;;;24.54;54.89
12897;BME280;6516;35.028;32.372;2022-10-16T12:49:30;99773.50;;;24.66;54.83
12897;BME280;6516;35.028;32.372;2022-10-16T12:51:59;99782.16;;;24.70;54.33
12897;BME280;6516;35.028;32.372;2022-10-16T12:54:29;99785.47;;;24.73;54.56
12897;BME280;6516;35.028;32.372;2022-10-16T12:57:18;99790.38;;;24.68;54.93
12897;BME280;6516;35.028;32.372;2022-10-16T13:00:03;99793.06;;;24.57;55.16
12897;BME280;6516;35.028;32.372;2022-10-16T13:02:53;99796.22;;;24.51;55.78
12897;BME280;6516;35.028;32.372;2022-10-16T13:05:41;99795.00;;;24.44;54.89
12897;BME280;6516;35.028;32.372;2022-10-16T13:08:31;99794.75;;;24.36;55.52
12897;BME280;6516;35.028;32.372;2022-10-16T13:11:12;99801.13;;;24.35;55.81
12897;BME280;6516;35.028;32.372;2022-10-16T13:14:02;99796.59;;;24.25;55.84
12897;BME280;6516;35.028;32.372;2022-10-16T13:16:48;99799.41;;;24.12;56.65
12897;BME280;6516;35.028;32.372;2022-10-16T13:19:26;99806.84;;;23.98;56.67
12897;BME280;6516;35.028;32.372;2022-10-16T13:22:03;99803.88;;;23.90;56.62
12897;BME280;6516;35.028;32.372;2022-10-16T13:24:52;99805.66;;;23.78;54.81